| Date | Time | Temp. (oF) | Dew Point (oF) | Rel. Hum. (%) | Press. (in.) | Wind Dir. | Wind Speed (mph) | Hourly Rainfall (in.) |
|
|---|---|---|---|---|---|---|---|---|---|
| 1 | 07/30 | 00:00 | 61 | 50 | 69 | 29.93 | NW | 3 | 0.00 |
| 2 | 07/29 | 23:00 | 64 | 47 | 56 | 29.92 | NW | 3 | 0.00 |
| 3 | 07/29 | 22:00 | 67 | 47 | 50 | 29.91 | NNW | 5 | 0.00 |
| 4 | 07/29 | 21:00 | 69 | 49 | 50 | 29.88 | N | 7 | 0.00 |
| 5 | 07/29 | 20:00 | 72 | 50 | 47 | 29.86 | NNW | 4 | 0.00 |
| 6 | 07/29 | 19:00 | 73 | 52 | 49 | 29.83 | NNW | 7 | 0.00 |
| 7 | 07/29 | 18:00 | 73 | 53 | 51 | 29.82 | NNW | 7 | 0.00 |
| 8 | 07/29 | 17:00 | 74 | 57 | 56 | 29.82 | N | 5 | 0.00 |
| 9 | 07/29 | 16:00 | 73 | 59 | 63 | 29.82 | N | 2 | 0.00 |
| 10 | 07/29 | 15:00 | 73 | 57 | 58 | 29.81 | N | 9 | 0.00 |
| 11 | 07/29 | 14:00 | 74 | 61 | 66 | 29.80 | N | 3 | 0.00 |
| 12 | 07/29 | 13:00 | 73 | 59 | 63 | 29.80 | N | 7 | 0.00 |
| 13 | 07/29 | 12:00 | 69 | 57 | 68 | 29.80 | NNE | 6 | 0.00 |
| 14 | 07/29 | 11:00 | 68 | 58 | 71 | 29.80 | NNW | 6 | 0.00 |
| 15 | 07/29 | 10:00 | 67 | 58 | 73 | 29.79 | N | 4 | 0.00 |
| 16 | 07/29 | 09:00 | 67 | 58 | 75 | 29.77 | NE | 9 | 0.00 |
| 17 | 07/29 | 08:00 | 65 | 60 | 86 | 29.75 | NNE | 4 | 0.01 |
| 18 | 07/29 | 07:00 | 65 | 62 | 92 | 29.74 | N | 6 | 0.00 |
| 19 | 07/29 | 06:00 | 64 | 63 | 97 | 29.73 | NNE | 5 | 0.00 |
| 20 | 07/29 | 05:00 | 64 | 63 | 99 | 29.71 | NNE | 4 | 0.01 |
| 21 | 07/29 | 04:00 | 64 | 63 | 99 | 29.71 | N | 2 | 0.14 |
| 22 | 07/29 | 03:00 | 67 | 67 | 100 | 29.73 | NNW | 6 | 0.17 |
| 23 | 07/29 | 02:00 | 67 | 67 | 100 | 29.74 | E | 3 | 0.09 |
| 24 | 07/29 | 01:00 | 68 | 68 | 100 | 29.74 | N | 7 | 0.02 |